Archival Weather

Half Moon Bay

Half Moon Bay, California (KHAF)

Report from: Thursday, September 21, 2023 11:55 AM PDT
Current time: Saturday, February 24, 2024 9:05 AM PST

Current weather – Weather history – Daily summaries
Weather forecast

Present weatherHaze
Temperature18.0°C (64.4°F)
Dew point12.0°C (53.6°F)
Winds 6 kts (3.1 m/s, 6.9 mph) South-Southeast (160°)
Visibility5 mi. (8 km)
Clouds Sky clear
Altimeter29.92 in.Hg (1013 mB)
Relative humidity68 %
Density altitude551 ft. (168 m)
Remarks Fully automated report
Automated weather observing station with precipitation discriminator
Flight conditions Visual Meteorological Conditions
Raw dataKHAF 211855Z AUTO 16006KT 5SM HZ CLR 18/12 A2992 RMK AO2
An error has occurred. This application may no longer respond until reloaded. Reload 🗙